createdAt,value
2023-05-23T00:00:19.711Z,5.30
2023-05-23T00:02:48.435Z,4.90
2023-05-23T00:05:17.954Z,5.00
2023-05-23T00:07:47.290Z,5.27
2023-05-23T00:10:15.231Z,4.97
2023-05-23T00:12:43.331Z,5.53
2023-05-23T00:15:12.176Z,5.30
2023-05-23T00:17:40.179Z,5.47
2023-05-23T00:20:09.719Z,4.67
2023-05-23T00:22:42.128Z,5.27
2023-05-23T00:25:11.623Z,5.03
2023-05-23T00:27:39.531Z,5.23
2023-05-23T00:30:08.757Z,4.83
2023-05-23T00:32:36.692Z,4.70
2023-05-23T00:35:05.190Z,5.17
2023-05-23T00:37:34.158Z,5.20
2023-05-23T00:40:02.163Z,5.07
2023-05-23T00:42:32.639Z,5.07
2023-05-23T00:45:00.590Z,4.70
2023-05-23T00:47:28.682Z,4.93
2023-05-23T00:49:56.664Z,5.00
2023-05-23T00:52:24.569Z,5.50
2023-05-23T00:54:52.516Z,4.90
2023-05-23T00:57:20.621Z,5.30
2023-05-23T00:59:49.917Z,4.90
2023-05-23T01:02:17.870Z,4.80
2023-05-23T01:04:45.846Z,5.10
2023-05-23T01:07:13.853Z,5.07
2023-05-23T01:09:41.861Z,4.50
2023-05-23T01:12:16.733Z,4.73
2023-05-23T01:14:47.736Z,5.30
2023-05-23T01:17:21.171Z,4.90
2023-05-23T01:19:53.234Z,4.87
2023-05-23T01:22:24.597Z,4.73
2023-05-23T01:24:56.214Z,4.80
2023-05-23T01:27:29.963Z,5.03
2023-05-23T01:29:59.804Z,5.03
2023-05-23T01:32:27.785Z,4.20
2023-05-23T01:34:55.765Z,4.90
2023-05-23T01:37:23.720Z,5.10
2023-05-23T01:39:52.382Z,5.47
2023-05-23T01:42:20.476Z,4.87
2023-05-23T01:44:48.403Z,5.10
2023-05-23T01:47:17.746Z,5.10
2023-05-23T01:49:46.480Z,4.97
2023-05-23T01:52:15.648Z,4.73
2023-05-23T01:54:43.801Z,4.80
2023-05-23T01:57:12.058Z,4.90
2023-05-23T01:59:40.043Z,4.90
2023-05-23T02:02:08.119Z,5.00
2023-05-23T02:04:37.527Z,5.00
2023-05-23T02:07:06.009Z,4.40
2023-05-23T02:09:33.953Z,5.00
2023-05-23T02:12:01.947Z,4.83
2023-05-23T02:14:29.928Z,4.77
2023-05-23T02:16:57.867Z,5.00
2023-05-23T02:19:27.487Z,5.00
2023-05-23T02:21:56.861Z,5.00
2023-05-23T02:24:25.646Z,5.13
2023-05-23T02:26:53.781Z,4.80
2023-05-23T02:29:23.565Z,5.03
2023-05-23T02:31:51.900Z,4.90
2023-05-23T02:34:19.838Z,5.07
2023-05-23T02:36:47.765Z,4.50
2023-05-23T02:39:17.177Z,4.90
2023-05-23T02:41:47.100Z,5.07
2023-05-23T02:44:15.115Z,5.17
2023-05-23T02:46:43.261Z,4.90
2023-05-23T02:49:11.315Z,5.30
2023-05-23T02:51:39.283Z,5.20
2023-05-23T02:54:07.338Z,4.77
2023-05-23T02:56:39.549Z,5.27
2023-05-23T02:59:07.563Z,4.83
2023-05-23T03:01:35.668Z,4.90
2023-05-23T03:04:04.310Z,4.73
2023-05-23T03:06:34.022Z,4.97
2023-05-23T03:09:02.269Z,5.47
2023-05-23T03:11:30.768Z,5.23
2023-05-23T03:14:02.033Z,5.23
2023-05-23T03:16:30.923Z,5.30
2023-05-23T03:18:58.940Z,5.10
2023-05-23T03:21:30.110Z,4.83
2023-05-23T03:23:58.022Z,5.13
2023-05-23T03:26:26.170Z,5.07
2023-05-23T03:28:54.077Z,4.80
2023-05-23T03:31:23.894Z,5.47
2023-05-23T03:33:52.036Z,4.90
2023-05-23T03:36:20.021Z,5.57
2023-05-23T03:38:48.080Z,4.83
2023-05-23T03:41:16.183Z,5.13
2023-05-23T03:43:45.246Z,5.17
2023-05-23T03:46:14.036Z,5.13
2023-05-23T03:48:44.308Z,5.33
2023-05-23T03:51:13.400Z,5.67
2023-05-23T03:53:42.264Z,4.70
2023-05-23T03:56:10.953Z,5.27
2023-05-23T03:58:39.017Z,5.20
2023-05-23T04:01:13.425Z,5.67
2023-05-23T04:03:42.166Z,5.40
2023-05-23T04:06:12.975Z,5.80
2023-05-23T04:08:45.225Z,5.50
2023-05-23T04:11:13.233Z,5.33
2023-05-23T04:13:42.679Z,5.80
2023-05-23T04:16:11.929Z,5.40
2023-05-23T04:18:43.513Z,5.40
2023-05-23T04:21:12.861Z,6.20
2023-05-23T04:23:49.961Z,6.00
2023-05-23T04:26:17.899Z,6.10
2023-05-23T04:28:50.177Z,5.20
2023-05-23T04:31:19.098Z,6.03
2023-05-23T04:33:47.535Z,6.00
2023-05-23T04:36:18.208Z,6.07
2023-05-23T04:38:50.848Z,5.77
2023-05-23T04:41:23.432Z,6.13
2023-05-23T04:44:11.927Z,6.40
2023-05-23T04:46:45.556Z,6.07
2023-05-23T04:49:40.352Z,6.53
2023-05-23T04:52:11.162Z,6.80
2023-05-23T04:54:44.773Z,6.30
2023-05-23T04:57:13.277Z,6.63
2023-05-23T04:59:42.493Z,6.90
2023-05-23T05:02:11.196Z,5.83
2023-05-23T05:04:39.937Z,6.10
2023-05-23T05:07:07.996Z,6.47
2023-05-23T05:09:40.002Z,6.30
2023-05-23T05:12:09.332Z,6.50
2023-05-23T05:14:38.112Z,6.13
2023-05-23T05:17:06.793Z,5.90
2023-05-23T05:19:43.273Z,6.50
2023-05-23T05:22:11.213Z,5.60
2023-05-23T05:24:41.703Z,6.43
2023-05-23T05:27:11.659Z,6.20
2023-05-23T05:29:42.579Z,6.10
2023-05-23T05:32:10.554Z,6.43
2023-05-23T05:34:38.739Z,6.17
2023-05-23T05:37:07.744Z,6.10
2023-05-23T05:39:35.689Z,6.57
2023-05-23T05:42:05.383Z,5.50
2023-05-23T05:44:33.340Z,6.13
2023-05-23T05:47:01.378Z,5.80
2023-05-23T05:49:30.803Z,5.30
2023-05-23T05:51:59.082Z,5.50
2023-05-23T05:54:27.043Z,5.90
2023-05-23T05:56:56.177Z,5.77
2023-05-23T05:59:25.613Z,5.97
2023-05-23T06:01:53.643Z,5.50
2023-05-23T06:04:21.873Z,5.50
2023-05-23T06:06:50.991Z,5.47
2023-05-23T06:09:19.422Z,5.57
2023-05-23T06:11:47.417Z,5.30
2023-05-23T06:14:16.134Z,5.63
2023-05-23T06:16:48.876Z,5.73
2023-05-23T06:19:17.228Z,5.43
2023-05-23T06:21:46.663Z,5.63
2023-05-23T06:24:15.903Z,5.70
2023-05-23T06:26:45.121Z,5.30
2023-05-23T06:29:14.269Z,4.87
2023-05-23T06:31:42.279Z,5.83
2023-05-23T06:34:11.612Z,5.10
2023-05-23T06:36:42.073Z,5.07
2023-05-23T06:39:10.579Z,5.63
2023-05-23T06:41:39.648Z,5.10
2023-05-23T06:44:07.669Z,5.37
2023-05-23T06:46:37.612Z,4.97
2023-05-23T06:49:14.281Z,5.23
2023-05-23T06:51:46.107Z,5.30
2023-05-23T06:54:17.169Z,5.47
2023-05-23T06:56:45.572Z,5.50
2023-05-23T06:59:13.479Z,5.00
2023-05-23T07:01:41.947Z,4.67
2023-05-23T07:04:12.068Z,4.70
2023-05-23T07:06:40.485Z,5.00
2023-05-23T07:09:11.837Z,5.13
2023-05-23T07:11:41.162Z,4.67
2023-05-23T07:14:10.179Z,4.87
2023-05-23T07:16:42.221Z,5.17
2023-05-23T07:19:10.198Z,4.70
2023-05-23T07:21:45.217Z,4.70
2023-05-23T07:24:17.085Z,4.63
2023-05-23T07:26:45.076Z,5.17
2023-05-23T07:29:13.223Z,4.60
2023-05-23T07:31:42.005Z,4.60
2023-05-23T07:34:11.077Z,4.90
2023-05-23T07:36:50.168Z,4.90
2023-05-23T07:39:22.246Z,5.00
2023-05-23T07:41:51.636Z,4.73
2023-05-23T07:44:23.179Z,4.90
2023-05-23T07:46:52.978Z,4.67
2023-05-23T07:49:21.253Z,4.67
2023-05-23T07:51:49.415Z,4.60
2023-05-23T07:54:19.117Z,4.30
2023-05-23T07:56:47.259Z,4.60
2023-05-23T07:59:16.676Z,4.33
2023-05-23T08:01:46.169Z,4.67
2023-05-23T08:04:19.500Z,4.73
2023-05-23T08:07:04.955Z,4.07
2023-05-23T08:10:01.104Z,4.40
2023-05-23T08:12:29.073Z,4.23
2023-05-23T08:15:13.122Z,4.83
2023-05-23T08:17:51.455Z,4.40
2023-05-23T08:20:19.628Z,4.10
2023-05-23T08:22:48.193Z,4.07
2023-05-23T08:25:17.675Z,4.00
2023-05-23T08:27:46.063Z,4.13
2023-05-23T08:30:33.606Z,3.73
2023-05-23T08:33:04.770Z,4.30
2023-05-23T08:35:36.279Z,3.70
2023-05-23T08:38:08.950Z,3.60
2023-05-23T08:40:41.653Z,3.80
2023-05-23T08:43:13.154Z,4.10
2023-05-23T08:45:41.533Z,3.60
2023-05-23T08:48:10.048Z,3.80
2023-05-23T08:50:43.198Z,3.70
2023-05-23T08:53:11.308Z,3.77
2023-05-23T08:55:42.345Z,3.60
2023-05-23T08:58:10.385Z,4.00
2023-05-23T09:00:47.508Z,3.50
2023-05-23T09:03:15.496Z,3.40
2023-05-23T09:06:03.798Z,3.47
2023-05-23T09:08:32.310Z,3.67
2023-05-23T09:11:02.943Z,3.40
2023-05-23T09:13:33.209Z,3.40
2023-05-23T09:16:06.214Z,3.37
2023-05-23T09:18:42.971Z,3.20
2023-05-23T09:21:13.956Z,3.20
2023-05-23T09:23:52.352Z,3.27
2023-05-23T09:26:21.815Z,3.20
2023-05-23T09:28:53.026Z,3.10
2023-05-23T09:31:23.324Z,3.37
2023-05-23T09:33:51.497Z,3.57
2023-05-23T09:36:21.099Z,3.20
2023-05-23T09:38:49.327Z,3.60
2023-05-23T09:41:20.120Z,3.00
2023-05-23T09:43:52.830Z,3.00
2023-05-23T09:46:24.181Z,3.10
2023-05-23T09:48:54.017Z,3.13
2023-05-23T09:51:22.495Z,2.77
2023-05-23T09:53:50.670Z,3.10
2023-05-23T09:56:18.811Z,3.23
2023-05-23T09:58:48.159Z,3.17
2023-05-23T10:01:18.056Z,3.10
2023-05-23T10:03:47.373Z,2.63
2023-05-23T10:06:18.592Z,2.93
2023-05-23T10:08:47.689Z,2.83
2023-05-23T10:11:46.768Z,2.70
2023-05-23T10:14:14.713Z,2.50
2023-05-23T10:16:49.123Z,3.00
2023-05-23T10:19:21.652Z,2.80
2023-05-23T10:21:53.435Z,2.90
2023-05-23T10:24:21.534Z,2.90
2023-05-23T10:26:50.655Z,2.90
2023-05-23T10:29:18.590Z,3.03
2023-05-23T10:31:47.971Z,2.47
2023-05-23T10:34:18.704Z,2.40
2023-05-23T10:36:52.549Z,2.57
2023-05-23T10:39:23.910Z,2.43
2023-05-23T10:41:54.207Z,2.70
2023-05-23T10:44:24.582Z,2.40
2023-05-23T10:46:54.705Z,2.43
2023-05-23T10:49:22.760Z,2.83
2023-05-23T10:51:52.010Z,2.17
2023-05-23T10:54:20.886Z,2.30
2023-05-23T10:56:48.980Z,2.37
2023-05-23T10:59:23.570Z,2.30
2023-05-23T11:01:52.421Z,2.40
2023-05-23T11:04:28.035Z,2.50
2023-05-23T11:06:56.915Z,2.53
2023-05-23T11:09:25.052Z,2.47
2023-05-23T11:11:53.722Z,2.60
2023-05-23T11:14:21.778Z,2.27
2023-05-23T11:16:50.057Z,2.73
2023-05-23T11:19:27.911Z,2.20
2023-05-23T11:21:59.537Z,2.23
2023-05-23T11:24:48.969Z,2.30
2023-05-23T11:27:20.152Z,2.20
2023-05-23T11:29:58.730Z,2.27
2023-05-23T11:32:28.846Z,2.30
2023-05-23T11:34:56.838Z,2.37
2023-05-23T11:37:27.331Z,2.40
2023-05-23T11:39:56.608Z,2.20
2023-05-23T11:42:24.894Z,2.20
2023-05-23T11:44:52.905Z,2.37
2023-05-23T11:47:21.472Z,2.77
2023-05-23T11:49:49.517Z,2.23
2023-05-23T11:52:17.510Z,2.63
2023-05-23T11:54:46.826Z,2.00
2023-05-23T11:57:14.971Z,2.40
2023-05-23T11:59:42.971Z,2.30
2023-05-23T12:02:10.948Z,2.50
2023-05-23T12:04:38.994Z,2.57
2023-05-23T12:07:08.351Z,2.40
2023-05-23T12:09:43.911Z,2.47
2023-05-23T12:12:13.580Z,2.53
2023-05-23T12:14:44.724Z,2.60
2023-05-23T12:17:13.714Z,2.30
2023-05-23T12:19:46.337Z,2.27
2023-05-23T12:22:14.321Z,2.60
2023-05-23T12:24:46.693Z,2.70
2023-05-23T12:27:17.490Z,2.20
2023-05-23T12:29:51.486Z,2.50
2023-05-23T12:32:19.473Z,2.60
2023-05-23T12:34:47.536Z,2.50
2023-05-23T12:37:19.722Z,2.73
2023-05-23T12:39:48.404Z,2.50
2023-05-23T12:42:17.745Z,2.53
2023-05-23T12:44:46.182Z,2.40
2023-05-23T12:47:15.047Z,2.40
2023-05-23T12:49:44.726Z,2.50
2023-05-23T12:52:12.683Z,2.63
2023-05-23T12:54:40.599Z,2.37
2023-05-23T12:57:08.606Z,2.37
2023-05-23T12:59:37.893Z,2.40
2023-05-23T13:02:05.982Z,2.50
2023-05-23T13:04:34.022Z,2.40
2023-05-23T13:07:02.117Z,2.60
2023-05-23T13:09:30.071Z,2.70
2023-05-23T13:11:58.784Z,2.63
2023-05-23T13:14:26.847Z,2.53
2023-05-23T13:16:56.202Z,2.57
2023-05-23T13:19:24.287Z,2.60
2023-05-23T13:21:52.303Z,2.57
2023-05-23T13:24:20.280Z,2.50
2023-05-23T13:26:48.485Z,2.50
2023-05-23T13:29:16.422Z,2.40
2023-05-23T13:31:44.466Z,2.47
2023-05-23T13:34:14.422Z,2.70
2023-05-23T13:36:42.335Z,2.50
2023-05-23T13:39:10.490Z,2.67
2023-05-23T13:41:38.545Z,2.83
2023-05-23T13:44:06.554Z,2.43
2023-05-23T13:46:34.606Z,2.73
2023-05-23T13:49:02.790Z,2.53
2023-05-23T13:51:32.561Z,2.80
2023-05-23T13:54:00.645Z,2.50
2023-05-23T13:56:28.601Z,2.80
2023-05-23T13:58:58.688Z,2.60
2023-05-23T14:01:26.642Z,2.43
2023-05-23T14:03:54.616Z,2.77
2023-05-23T14:06:22.548Z,2.80
2023-05-23T14:08:51.938Z,2.60
2023-05-23T14:11:19.931Z,3.00
2023-05-23T14:13:47.914Z,2.80
2023-05-23T14:16:18.857Z,2.60
2023-05-23T14:18:46.866Z,2.80
2023-05-23T14:21:14.806Z,2.70
2023-05-23T14:23:42.868Z,3.00
2023-05-23T14:26:12.206Z,2.53
2023-05-23T14:28:40.187Z,2.70
2023-05-23T14:31:08.124Z,2.90
2023-05-23T14:33:36.092Z,3.43
2023-05-23T14:36:04.194Z,2.90
2023-05-23T14:38:32.143Z,2.60
2023-05-23T14:41:00.139Z,2.73
2023-05-23T14:43:30.511Z,3.07
2023-05-23T14:45:58.629Z,2.73
2023-05-23T14:48:26.982Z,2.70
2023-05-23T14:50:54.928Z,2.70
2023-05-23T14:53:23.937Z,2.83
2023-05-23T14:55:51.918Z,2.83
2023-05-23T14:58:19.847Z,3.07
2023-05-23T15:00:49.167Z,2.60
2023-05-23T15:03:17.229Z,2.63
2023-05-23T15:05:48.373Z,2.73
2023-05-23T15:08:19.636Z,2.77
2023-05-23T15:10:47.640Z,2.60
2023-05-23T15:13:15.627Z,2.60
2023-05-23T15:15:43.803Z,2.30
2023-05-23T15:18:21.353Z,3.30
2023-05-23T15:20:56.124Z,2.90
2023-05-23T15:23:24.119Z,2.90
2023-05-23T15:25:52.176Z,2.40
2023-05-23T15:28:20.274Z,2.87
2023-05-23T15:30:49.474Z,2.83
2023-05-23T15:33:18.865Z,2.47
2023-05-23T15:35:46.807Z,2.73
2023-05-23T15:38:16.558Z,2.30
2023-05-23T15:40:47.689Z,2.83
2023-05-23T15:43:15.738Z,2.60
2023-05-23T15:45:43.866Z,2.70
2023-05-23T15:48:12.222Z,2.97
2023-05-23T15:50:41.733Z,2.57
2023-05-23T15:53:09.886Z,2.80
2023-05-23T15:55:40.492Z,2.47
2023-05-23T15:58:10.538Z,2.67
2023-05-23T16:00:38.649Z,2.70
2023-05-23T16:03:06.753Z,2.40
2023-05-23T16:05:34.707Z,3.60
2023-05-23T16:08:07.207Z,3.63
2023-05-23T16:10:35.169Z,5.07
2023-05-23T16:13:04.032Z,4.60
2023-05-23T16:15:31.992Z,3.77
2023-05-23T16:18:00.028Z,5.10
2023-05-23T16:20:28.080Z,5.03
2023-05-23T16:22:56.165Z,4.47
2023-05-23T16:25:25.601Z,4.63
2023-05-23T16:27:53.554Z,4.47
2023-05-23T16:30:21.538Z,4.50
2023-05-23T16:32:49.521Z,5.17
2023-05-23T16:35:17.474Z,5.00
2023-05-23T16:37:45.498Z,4.67
2023-05-23T16:40:13.637Z,5.37
2023-05-23T16:42:43.152Z,5.67
2023-05-23T16:45:11.274Z,6.13
2023-05-23T16:47:39.270Z,5.87
2023-05-23T16:50:08.559Z,5.60
2023-05-23T16:52:36.477Z,5.77
2023-05-23T16:55:04.539Z,6.00
2023-05-23T16:57:32.481Z,6.70
2023-05-23T17:00:01.803Z,5.90
2023-05-23T17:02:30.809Z,6.13
2023-05-23T17:05:00.856Z,6.70
2023-05-23T17:07:28.748Z,6.50
2023-05-23T17:09:56.736Z,6.90
2023-05-23T17:12:24.670Z,7.00
2023-05-23T17:14:52.679Z,6.70
2023-05-23T17:17:22.134Z,7.47
2023-05-23T17:19:50.097Z,6.90
2023-05-23T17:22:18.087Z,6.83
2023-05-23T17:24:48.747Z,7.03
2023-05-23T17:27:16.768Z,6.93
2023-05-23T17:29:44.701Z,7.37
2023-05-23T17:32:12.697Z,7.03
2023-05-23T17:34:44.883Z,5.90
2023-05-23T17:37:12.850Z,7.10
2023-05-23T17:39:40.776Z,6.90
2023-05-23T17:42:08.707Z,6.90
2023-05-23T17:44:36.706Z,7.00
2023-05-23T17:47:04.819Z,6.80
2023-05-23T17:49:34.867Z,7.33
2023-05-23T17:52:05.740Z,7.37
2023-05-23T17:54:33.717Z,6.90
2023-05-23T17:57:01.881Z,7.00
2023-05-23T17:59:29.878Z,6.77
2023-05-23T18:01:57.861Z,7.20
2023-05-23T18:04:25.911Z,7.13
2023-05-23T18:06:53.889Z,7.07
2023-05-23T18:09:24.820Z,7.07
2023-05-23T18:11:52.817Z,6.67
2023-05-23T18:14:23.975Z,6.90
2023-05-23T18:16:52.342Z,6.33
2023-05-23T18:19:20.357Z,6.53
2023-05-23T18:21:48.380Z,6.60
2023-05-23T18:24:21.074Z,6.50
2023-05-23T18:26:50.359Z,6.90
2023-05-23T18:29:19.952Z,7.00
2023-05-23T18:31:47.926Z,6.20
2023-05-23T18:34:15.883Z,6.50
2023-05-23T18:36:43.922Z,6.37
2023-05-23T18:39:11.879Z,6.90
2023-05-23T18:41:39.962Z,6.67
2023-05-23T18:44:09.265Z,7.03
2023-05-23T18:46:37.348Z,6.40
2023-05-23T18:49:05.344Z,6.30
2023-05-23T18:51:33.305Z,6.33
2023-05-23T18:54:01.247Z,5.93
2023-05-23T18:56:29.207Z,5.97
2023-05-23T18:58:57.105Z,5.87
2023-05-23T19:01:26.871Z,6.37
2023-05-23T19:03:56.207Z,6.17
2023-05-23T19:06:25.455Z,5.70
2023-05-23T19:08:53.407Z,5.90
2023-05-23T19:11:21.704Z,6.20
2023-05-23T19:13:49.660Z,6.27
2023-05-23T19:16:20.429Z,5.80
2023-05-23T19:18:50.379Z,5.70
2023-05-23T19:21:18.439Z,6.03
2023-05-23T19:23:46.404Z,5.30
2023-05-23T19:26:14.325Z,5.73
2023-05-23T19:28:42.305Z,5.10
2023-05-23T19:31:12.196Z,5.63
2023-05-23T19:33:40.145Z,5.67
2023-05-23T19:36:09.506Z,5.20
2023-05-23T19:38:37.422Z,5.20
2023-05-23T19:41:05.364Z,4.93
2023-05-23T19:43:33.255Z,4.97
2023-05-23T19:46:01.216Z,5.30
2023-05-23T19:48:29.183Z,5.67
2023-05-23T19:50:57.165Z,5.27
2023-05-23T19:53:26.483Z,5.23
2023-05-23T19:55:54.521Z,4.70
2023-05-23T19:58:22.531Z,5.27
2023-05-23T20:00:50.503Z,4.73
2023-05-23T20:03:18.508Z,5.30
2023-05-23T20:05:48.468Z,4.83
2023-05-23T20:08:17.237Z,5.13
2023-05-23T20:10:46.842Z,5.10
2023-05-23T20:13:14.833Z,4.97
2023-05-23T20:15:42.755Z,4.33
2023-05-23T20:18:10.796Z,4.70
2023-05-23T20:20:38.783Z,4.60
2023-05-23T20:23:07.389Z,4.70
2023-05-23T20:25:35.383Z,4.43
2023-05-23T20:28:04.755Z,4.40
2023-05-23T20:30:38.151Z,4.47
2023-05-23T20:33:06.201Z,4.47
2023-05-23T20:35:34.181Z,4.23
2023-05-23T20:38:02.230Z,4.47
2023-05-23T20:40:33.600Z,4.30
2023-05-23T20:43:04.725Z,4.23
2023-05-23T20:45:34.183Z,4.43
2023-05-23T20:48:02.215Z,4.40
2023-05-23T20:50:32.391Z,4.30
2023-05-23T20:53:02.393Z,5.63
2023-05-23T20:55:30.685Z,4.17
2023-05-23T20:57:58.588Z,4.27
2023-05-23T21:00:26.504Z,4.30
2023-05-23T21:02:56.194Z,4.10
2023-05-23T21:05:24.391Z,4.67
2023-05-23T21:07:52.325Z,4.20
2023-05-23T21:10:20.622Z,4.17
2023-05-23T21:12:50.841Z,4.20
2023-05-23T21:15:18.916Z,4.10
2023-05-23T21:17:46.944Z,4.43
2023-05-23T21:20:16.335Z,4.00
2023-05-23T21:22:44.315Z,4.20
2023-05-23T21:25:12.412Z,3.87
2023-05-23T21:27:42.646Z,4.13
2023-05-23T21:30:11.333Z,4.10
2023-05-23T21:32:39.373Z,3.63
2023-05-23T21:35:08.559Z,3.73
2023-05-23T21:37:37.873Z,3.13
2023-05-23T21:40:07.006Z,3.90
2023-05-23T21:42:34.938Z,3.40
2023-05-23T21:45:02.876Z,3.67
2023-05-23T21:47:30.823Z,3.60
2023-05-23T21:49:58.784Z,3.20
2023-05-23T21:52:26.719Z,3.63
2023-05-23T21:54:56.219Z,3.80
2023-05-23T21:57:24.164Z,3.70
2023-05-23T21:59:52.104Z,3.50
2023-05-23T22:02:20.023Z,3.47
2023-05-23T22:04:47.992Z,3.70
2023-05-23T22:07:15.918Z,3.50
2023-05-23T22:09:43.882Z,3.67
2023-05-23T22:12:13.799Z,3.50
2023-05-23T22:14:41.777Z,3.50
2023-05-23T22:17:10.007Z,3.40
2023-05-23T22:19:37.925Z,3.30
2023-05-23T22:22:07.878Z,3.30
2023-05-23T22:24:35.801Z,3.63
2023-05-23T22:27:04.189Z,3.60
2023-05-23T22:29:33.567Z,3.43
2023-05-23T22:32:01.642Z,3.20
2023-05-23T22:34:29.925Z,3.13
2023-05-23T22:37:00.259Z,3.30
2023-05-23T22:39:28.488Z,3.40
2023-05-23T22:41:56.454Z,3.57
2023-05-23T22:44:24.380Z,3.37
2023-05-23T22:46:53.706Z,3.23
2023-05-23T22:49:22.246Z,3.53
2023-05-23T22:51:50.172Z,3.50
2023-05-23T22:54:18.103Z,3.40
2023-05-23T22:56:46.019Z,3.00
2023-05-23T22:59:13.962Z,3.37
2023-05-23T23:01:42.033Z,3.50
2023-05-23T23:04:12.156Z,3.47
2023-05-23T23:06:43.074Z,3.40
2023-05-23T23:09:12.678Z,3.17
2023-05-23T23:11:40.810Z,3.20
2023-05-23T23:14:08.739Z,2.97
2023-05-23T23:16:37.961Z,3.20
2023-05-23T23:19:05.900Z,3.30
2023-05-23T23:21:35.843Z,3.80
2023-05-23T23:24:05.990Z,3.37
2023-05-23T23:26:33.913Z,3.03
2023-05-23T23:29:03.101Z,3.27
2023-05-23T23:31:31.294Z,3.40
2023-05-23T23:33:59.274Z,3.13
2023-05-23T23:36:27.225Z,3.00
2023-05-23T23:38:56.577Z,3.23
2023-05-23T23:41:24.549Z,3.47
2023-05-23T23:43:52.533Z,2.90
2023-05-23T23:46:20.903Z,3.20
2023-05-23T23:48:48.901Z,3.33
2023-05-23T23:51:17.045Z,3.10
2023-05-23T23:53:47.988Z,3.20
2023-05-23T23:56:18.097Z,2.80
2023-05-23T23:58:46.020Z,2.93
